Terminal Aerodrome Forecast
Issued by NWS Cleveland, OH

Home | Current Version | Previous Version | Text Only | Print | Product List | Glossary Off
Versions: 1 2 3 4 5 6 7 8 9 10 11 12 13 14 15 16 17 18 19 20 21

000
FTUS41 KCLE 222300
TAFERI
TAF
KERI 222340Z 2300/2324 VRB04KT P6SM FEW050
     FM230200 18008KT P6SM SKC
     FM231200 23010KT P6SM VCSH BKN050 OVC100
      TEMPO 2314/2317 34012KT -SHRA OVC012
     FM231700 34012KT P6SM BKN018
     FM232100 30010KT P6SM BKN030=

USA.gov is the U.S. government's official web portal to all federal, state and local government web resources and services.